Time;durP1;ratioP1;P1;durP2;ratioP2;P2;SDS_P1;SDS_P2;PMS_P1;PMS_P2;Temp;Humidity;BMP_temperature;BMP_pressure;BME280_temperature;BME280_humidity;BME280_pressure;Samples;Min_cycle;Max_cycle;Signal;HPM_P1;HPM_P2
2022/04/01 00:03:29;;;;;;;6.03;3.53;;;3.90;99.90;;;;;;8407631;28;20246;-60
2022/04/01 00:07:30;;;;;;;4.97;3.07;;;3.90;99.90;;;;;;8420061;28;20212;-59
2022/04/01 00:11:31;;;;;;;5.80;3.43;;;3.80;99.90;;;;;;8401963;28;20549;-59
2022/04/01 00:15:33;;;;;;;7.53;3.40;;;3.80;99.90;;;;;;8436424;28;20212;-60
2022/04/01 00:19:34;;;;;;;5.90;3.43;;;3.80;99.90;;;;;;8408158;28;20264;-61
2022/04/01 00:23:34;;;;;;;7.40;4.00;;;3.70;99.90;;;;;;8409467;28;20200;-60
2022/04/01 00:27:36;;;;;;;5.83;3.23;;;3.70;99.90;;;;;;8430747;28;20286;-59
2022/04/01 00:31:36;;;;;;;8.23;3.90;;;3.70;99.90;;;;;;8452994;28;20298;-61
2022/04/01 00:35:38;;;;;;;17.43;8.83;;;3.60;99.90;;;;;;8418195;28;20211;-59
2022/04/01 00:39:39;;;;;;;11.10;5.17;;;3.60;99.90;;;;;;8412832;28;20207;-60
2022/04/01 00:43:40;;;;;;;17.77;6.87;;;3.60;99.90;;;;;;8418394;28;20274;-60
2022/04/01 00:47:41;;;;;;;9.33;4.60;;;3.50;99.90;;;;;;8437615;28;20196;-61
2022/04/01 00:51:43;;;;;;;12.67;5.87;;;3.50;99.90;;;;;;8404818;28;20208;-60
2022/04/01 00:55:45;;;;;;;11.13;4.47;;;3.50;99.90;;;;;;8431438;28;20200;-62
2022/04/01 00:59:48;;;;;;;7.57;3.73;;;3.40;99.90;;;;;;8406458;28;20303;-60
2022/04/01 01:03:49;;;;;;;7.20;3.70;;;3.40;99.90;;;;;;8418274;28;20207;-61
2022/04/01 01:07:51;;;;;;;6.10;3.40;;;3.40;99.90;;;;;;8425147;28;20513;-59
2022/04/01 01:11:53;;;;;;;7.87;3.53;;;3.30;99.90;;;;;;8402229;28;20212;-59
2022/04/01 01:15:54;;;;;;;9.90;3.33;;;3.30;99.90;;;;;;8418488;28;20204;-59
2022/04/01 01:19:55;;;;;;;7.97;3.77;;;3.20;99.90;;;;;;8406913;28;20253;-59
2022/04/01 01:24:15;;;;;;;6.73;3.27;;;3.10;99.90;;;;;;8424251;28;20239;-59
2022/04/01 01:28:16;;;;;;;6.23;3.93;;;3.00;99.90;;;;;;8438824;28;20207;-59
2022/04/01 01:32:19;;;;;;;7.13;3.40;;;3.00;99.90;;;;;;8430738;28;20209;-59
2022/04/01 01:36:20;;;;;;;9.57;3.20;;;2.90;99.90;;;;;;8406358;28;20208;-58
2022/04/01 01:40:24;;;;;;;5.23;3.43;;;2.80;99.90;;;;;;8406719;28;20204;-58
2022/04/01 01:44:25;;;;;;;8.07;3.50;;;2.80;99.90;;;;;;8422953;28;20491;-59
2022/04/01 01:48:25;;;;;;;6.40;3.20;;;2.70;99.90;;;;;;8404103;28;20212;-59
2022/04/01 01:56:46;;;;;;;5.87;3.27;;;2.60;99.90;;;;;;8427217;28;20292;-65
2022/04/01 02:00:47;;;;;;;11.00;7.23;;;2.60;99.90;;;;;;8442978;28;20204;-59
2022/04/01 02:04:49;;;;;;;6.13;3.47;;;2.60;99.90;;;;;;8397778;28;20200;-58
2022/04/01 02:08:53;;;;;;;7.77;3.40;;;2.60;99.90;;;;;;8397282;28;20212;-60
2022/04/01 02:12:54;;;;;;;8.03;4.27;;;2.50;99.90;;;;;;8434111;28;20239;-60
2022/04/01 02:16:56;;;;;;;10.93;4.03;;;2.40;99.90;;;;;;8406238;28;20234;-58
2022/04/01 02:20:56;;;;;;;9.33;3.70;;;2.30;99.90;;;;;;8430756;28;20264;-58
2022/04/01 02:24:57;;;;;;;4.90;3.23;;;2.20;1.00;;;;;;8439463;28;20282;-61
2022/04/01 02:28:59;;;;;;;6.37;3.70;;;2.10;1.00;;;;;;8438410;28;20203;-58
2022/04/01 02:33:02;;;;;;;9.63;3.57;;;2.00;1.00;;;;;;8449435;28;20216;-60
2022/04/01 02:37:04;;;;;;;8.17;3.53;;;1.90;1.00;;;;;;8405652;28;20200;-59
2022/04/01 02:41:07;;;;;;;11.03;4.07;;;1.80;1.00;;;;;;8421136;28;20310;-61
2022/04/01 02:45:08;;;;;;;6.60;3.20;;;1.80;1.00;;;;;;8399942;28;20217;-60
2022/04/01 02:49:11;;;;;;;6.80;3.63;;;1.80;1.00;;;;;;8423656;28;20331;-60
2022/04/01 02:53:13;;;;;;;5.23;3.07;;;1.70;1.00;;;;;;8411866;28;20269;-58
2022/04/01 02:57:13;;;;;;;5.47;3.07;;;1.60;1.00;;;;;;8410654;28;20233;-61
2022/04/01 03:01:14;;;;;;;6.80;3.47;;;1.60;1.00;;;;;;8432928;28;20221;-61
2022/04/01 03:05:15;;;;;;;6.53;3.97;;;1.60;1.00;;;;;;8422506;28;20209;-59
2022/04/01 03:09:16;;;;;;;15.57;6.63;;;1.60;1.00;;;;;;8396132;28;20217;-59
2022/04/01 03:13:17;;;;;;;8.23;3.47;;;1.60;1.00;;;;;;8399259;28;20318;-59
2022/04/01 03:17:18;;;;;;;7.30;4.07;;;1.60;1.00;;;;;;8414185;28;20446;-59
2022/04/01 03:21:18;;;;;;;20.63;8.63;;;1.60;1.00;;;;;;8410962;28;20223;-57
2022/04/01 03:25:20;;;;;;;7.20;4.20;;;1.60;1.00;;;;;;8426140;28;20222;-59
2022/04/01 03:29:21;;;;;;;8.37;4.60;;;1.60;1.00;;;;;;8415223;28;20570;-59
2022/04/01 03:33:22;;;;;;;5.97;3.57;;;1.50;1.00;;;;;;8424139;28;20238;-60
2022/04/01 03:37:23;;;;;;;9.30;4.17;;;1.50;1.00;;;;;;8431339;28;20247;-59
2022/04/01 03:41:24;;;;;;;13.00;4.90;;;1.40;15.10;;;;;;8417863;28;20209;-60
2022/04/01 03:45:25;;;;;;;9.47;3.37;;;1.30;99.90;;;;;;8403380;28;20204;-58
2022/04/01 03:49:28;;;;;;;7.27;3.70;;;1.20;99.90;;;;;;8425850;28;20220;-61
2022/04/01 03:53:31;;;;;;;9.37;4.47;;;1.10;99.90;;;;;;8415740;28;20282;-60
2022/04/01 03:57:38;;;;;;;9.53;4.53;;;1.10;99.90;;;;;;8433309;28;20290;-58
2022/04/01 04:01:39;;;;;;;6.83;3.70;;;0.90;99.90;;;;;;8428495;28;20222;-59
2022/04/01 04:05:40;;;;;;;8.90;4.50;;;0.80;1.00;;;;;;8431152;28;20200;-58
2022/04/01 04:09:41;;;;;;;9.30;5.23;;;0.70;1.00;;;;;;8427382;28;20211;-59
2022/04/01 04:13:45;;;;;;;11.30;5.23;;;0.70;99.90;;;;;;8404163;28;20301;-59
2022/04/01 04:17:47;;;;;;;8.10;4.63;;;0.50;99.90;;;;;;8420451;28;20215;-59
2022/04/01 04:22:16;;;;;;;9.57;4.23;;;0.50;1.00;;;;;;8415099;28;20210;-59
2022/04/01 04:26:25;;;;;;;11.33;5.97;;;0.40;96.20;;;;;;8408745;28;20216;-59
2022/04/01 04:30:34;;;;;;;9.23;5.03;;;0.30;99.90;;;;;;8405325;28;20208;-58
2022/04/01 04:34:37;;;;;;;7.67;4.60;;;0.30;1.00;;;;;;8400292;28;20225;-60
2022/04/01 04:38:40;;;;;;;11.90;6.80;;;0.10;99.90;;;;;;8409686;28;20199;-58
2022/04/01 04:42:45;;;;;;;11.40;6.40;;;0.00;1.00;;;;;;8422996;28;20254;-57
2022/04/01 04:46:47;;;;;;;9.70;5.50;;;0.00;99.90;;;;;;8416269;28;20200;-60
2022/04/01 04:50:49;;;;;;;14.77;6.73;;;-0.10;1.00;;;;;;8433173;28;20208;-58
2022/04/01 04:54:52;;;;;;;9.40;6.23;;;-0.10;99.90;;;;;;8410023;28;20204;-59
2022/04/01 04:58:54;;;;;;;9.43;6.47;;;-0.10;99.90;;;;;;8436674;28;20195;-61
2022/04/01 05:03:11;;;;;;;8.17;5.00;;;-0.20;98.00;;;;;;8410889;28;20258;-58
2022/04/01 05:07:38;;;;;;;11.33;6.37;;;-0.20;99.90;;;;;;8399444;28;20196;-61
2022/04/01 05:12:05;;;;;;;7.07;4.83;;;-0.20;99.90;;;;;;8399576;28;20212;-57
2022/04/01 05:16:17;;;;;;;13.50;6.93;;;-0.20;99.90;;;;;;8412570;28;20222;-59
2022/04/01 05:20:26;;;;;;;11.43;7.13;;;-0.20;99.90;;;;;;8416968;28;20244;-59
2022/04/01 05:24:37;;;;;;;15.60;8.13;;;-0.30;1.00;;;;;;8426129;28;20200;-60
2022/04/01 05:28:46;;;;;;;13.33;8.10;;;-0.30;99.90;;;;;;8419121;28;20211;-58
2022/04/01 05:33:09;;;;;;;13.13;7.80;;;-0.30;1.00;;;;;;8415711;28;20319;-60
2022/04/01 05:37:10;;;;;;;22.20;9.80;;;-0.30;99.90;;;;;;8409134;28;20286;-58
2022/04/01 05:41:11;;;;;;;11.90;6.93;;;-0.30;99.90;;;;;;8408944;28;20207;-60
2022/04/01 05:45:13;;;;;;;8.77;5.07;;;-0.30;1.00;;;;;;8423922;28;20203;-58
2022/04/01 05:49:15;;;;;;;11.00;5.37;;;-0.20;1.00;;;;;;8442798;28;20235;-61
2022/04/01 05:53:17;;;;;;;8.07;4.07;;;-0.30;99.90;;;;;;8397703;28;20212;-62
2022/04/01 05:57:19;;;;;;;5.47;3.50;;;-0.20;99.90;;;;;;8430084;28;20227;-59
2022/04/01 06:01:37;;;;;;;9.77;5.90;;;-0.30;1.00;;;;;;8420131;28;20212;-59
2022/04/01 06:05:44;;;;;;;7.97;6.03;;;-0.20;1.00;;;;;;8420763;28;20203;-60
2022/04/01 06:09:58;;;;;;;12.93;7.37;;;-0.20;99.90;;;;;;8406374;28;20214;-60
2022/04/01 06:14:43;;;;;;;27.10;10.37;;;-0.20;99.90;;;;;;8406709;28;20225;-60
2022/04/01 06:19:04;;;;;;;11.73;7.17;;;-0.10;99.90;;;;;;8443332;28;20234;-59
2022/04/01 06:23:14;;;;;;;10.07;5.90;;;0.00;1.00;;;;;;8424205;28;20376;-69
2022/04/01 06:27:22;;;;;;;15.77;8.83;;;0.10;99.90;;;;;;8405622;28;20193;-58
2022/04/01 06:31:26;;;;;;;10.50;6.37;;;0.20;99.90;;;;;;8415365;28;20217;-58
2022/04/01 06:35:28;;;;;;;7.60;6.50;;;0.20;99.90;;;;;;8420585;28;20211;-59
2022/04/01 06:39:58;;;;;;;7.77;5.43;;;0.30;99.90;;;;;;8404454;28;20208;-59
2022/04/01 06:43:59;;;;;;;11.13;6.93;;;0.30;1.00;;;;;;8405882;28;20216;-61
2022/04/01 06:48:00;;;;;;;7.57;4.97;;;0.30;99.90;;;;;;8436310;28;20264;-60
2022/04/01 06:52:02;;;;;;;15.47;8.20;;;0.40;1.00;;;;;;8420184;28;20212;-58
2022/04/01 06:56:04;;;;;;;11.30;7.27;;;0.50;99.90;;;;;;8407315;28;20300;-60
2022/04/01 07:00:08;;;;;;;8.87;5.37;;;0.50;1.00;;;;;;8423713;28;20214;-60
2022/04/01 07:04:09;;;;;;;12.70;6.40;;;0.60;1.00;;;;;;8429727;28;20226;-59
2022/04/01 07:08:11;;;;;;;9.67;5.97;;;0.60;1.00;;;;;;8414613;28;20201;-60
2022/04/01 07:12:12;;;;;;;11.23;6.00;;;0.60;1.00;;;;;;8396680;28;20225;-59
2022/04/01 07:16:14;;;;;;;10.53;5.33;;;0.60;1.00;;;;;;8439495;28;20202;-61
2022/04/01 07:20:15;;;;;;;7.97;5.27;;;0.70;1.00;;;;;;8424520;28;20220;-59
2022/04/01 07:24:16;;;;;;;9.33;5.60;;;0.80;1.00;;;;;;8405392;28;20205;-59
2022/04/01 07:28:16;;;;;;;23.00;10.20;;;0.80;99.90;;;;;;8418023;28;20288;-61
2022/04/01 07:32:30;;;;;;;11.90;5.60;;;0.90;99.90;;;;;;8429227;28;20313;-60
2022/04/01 07:36:31;;;;;;;13.70;5.93;;;0.90;99.90;;;;;;8430105;28;20283;-59
2022/04/01 07:40:32;;;;;;;13.27;7.23;;;1.00;99.90;;;;;;8421913;28;20195;-64
2022/04/01 07:44:32;;;;;;;10.83;5.67;;;1.10;99.90;;;;;;8428592;28;20252;-60
2022/04/01 07:48:33;;;;;;;9.97;5.70;;;1.20;99.90;;;;;;8416761;28;20213;-59
2022/04/01 07:52:39;;;;;;;13.10;6.33;;;1.20;87.00;;;;;;8424131;28;20310;-59
2022/04/01 07:56:41;;;;;;;14.63;7.10;;;1.30;29.70;;;;;;8408537;28;20217;-61
2022/04/01 08:00:42;;;;;;;7.80;4.77;;;1.30;28.20;;;;;;8431366;28;20202;-59
2022/04/01 08:04:43;;;;;;;11.03;5.30;;;1.30;29.80;;;;;;8420672;28;20335;-61
2022/04/01 08:08:44;;;;;;;16.07;7.10;;;1.30;6.20;;;;;;8420219;28;20260;-61
2022/04/01 08:12:45;;;;;;;7.77;4.93;;;1.40;1.00;;;;;;8424113;28;20260;-59
2022/04/01 08:16:47;;;;;;;16.87;5.60;;;1.40;1.00;;;;;;8425887;28;20206;-58
2022/04/01 08:20:48;;;;;;;13.57;5.60;;;1.50;1.00;;;;;;8432506;28;20204;-58
2022/04/01 08:24:49;;;;;;;11.67;5.60;;;1.60;1.00;;;;;;8426410;28;20204;-59
2022/04/01 08:28:50;;;;;;;15.53;7.67;;;1.60;1.00;;;;;;8422443;28;20213;-59
2022/04/01 08:32:51;;;;;;;13.40;7.23;;;1.60;1.00;;;;;;8449423;28;20214;-60
2022/04/01 08:36:52;;;;;;;23.77;9.10;;;1.70;1.00;;;;;;8426155;28;20310;-59
2022/04/01 08:40:54;;;;;;;12.40;6.47;;;1.70;1.00;;;;;;8426090;28;20202;-60
2022/04/01 08:44:54;;;;;;;5.97;4.27;;;1.80;1.00;;;;;;8440662;28;20280;-59
2022/04/01 08:48:56;;;;;;;29.10;10.30;;;1.80;1.00;;;;;;8439085;28;20592;-60
2022/04/01 08:52:57;;;;;;;34.63;12.97;;;1.80;1.00;;;;;;8405520;28;20220;-59
2022/04/01 08:56:58;;;;;;;12.40;5.87;;;1.90;1.00;;;;;;8423112;28;20235;-60
2022/04/01 09:01:02;;;;;;;12.80;6.73;;;2.00;1.00;;;;;;8426552;28;20207;-58
2022/04/01 09:05:08;;;;;;;13.80;5.30;;;2.00;1.00;;;;;;8417226;28;20231;-59
2022/04/01 09:09:27;;;;;;;14.07;7.07;;;2.00;1.00;;;;;;8418698;28;20214;-60
2022/04/01 09:13:48;;;;;;;22.33;8.83;;;2.00;1.00;;;;;;8407602;28;20227;-60
2022/04/01 09:17:51;;;;;;;15.90;8.93;;;2.00;1.00;;;;;;8445640;28;20198;-60
2022/04/01 09:21:51;;;;;;;13.00;6.20;;;2.10;1.00;;;;;;8433294;28;20284;-60
2022/04/01 09:25:54;;;;;;;27.60;10.20;;;2.20;1.00;;;;;;8434447;28;20207;-60
2022/04/01 09:29:56;;;;;;;19.57;7.40;;;2.40;1.00;;;;;;8441921;28;20207;-60
2022/04/01 09:33:57;;;;;;;48.93;15.93;;;2.60;1.00;;;;;;8420569;28;20234;-61
2022/04/01 09:38:04;;;;;;;15.30;6.97;;;2.90;1.00;;;;;;8406479;28;20298;-59
2022/04/01 09:42:09;;;;;;;30.47;11.10;;;3.10;99.90;;;;;;8432352;28;20205;-60
2022/04/01 09:46:27;;;;;;;24.50;11.07;;;3.30;99.90;;;;;;8425768;28;20253;-60
2022/04/01 09:50:33;;;;;;;24.30;10.43;;;3.40;99.90;;;;;;8424022;28;20204;-62
2022/04/01 09:54:43;;;;;;;16.43;7.50;;;3.40;99.90;;;;;;8414178;28;20318;-59
2022/04/01 09:58:44;;;;;;;8.47;4.80;;;3.50;99.90;;;;;;8421998;28;20204;-59
2022/04/01 10:02:46;;;;;;;11.50;5.57;;;3.30;99.90;;;;;;8427904;28;20205;-59
2022/04/01 10:06:47;;;;;;;5.43;4.33;;;3.30;1.00;;;;;;8421541;28;20215;-60
2022/04/01 10:10:48;;;;;;;9.80;4.90;;;3.30;99.90;;;;;;8427283;28;20212;-64
2022/04/01 10:14:54;;;;;;;54.13;23.57;;;3.40;99.90;;;;;;8428544;28;20215;-58
2022/04/01 10:19:03;;;;;;;5.97;3.77;;;3.60;99.90;;;;;;8425356;28;20277;-59
2022/04/01 10:23:06;;;;;;;24.80;10.73;;;3.70;99.90;;;;;;8415751;28;20254;-59
2022/04/01 10:27:25;;;;;;;35.13;15.10;;;4.10;99.90;;;;;;8437188;28;20370;-59
2022/04/01 10:31:26;;;;;;;14.97;6.03;;;4.40;99.90;;;;;;8397881;28;20212;-58
2022/04/01 10:35:32;;;;;;;9.00;4.50;;;4.60;99.90;;;;;;8422636;28;20208;-62
2022/04/01 10:39:58;;;;;;;23.77;13.43;;;4.60;99.90;;;;;;8401366;28;20201;-60
2022/04/01 10:44:00;;;;;;;10.23;6.03;;;4.70;99.90;;;;;;8424489;28;20229;-58
2022/04/01 10:52:24;;;;;;;11.67;5.97;;;4.80;99.90;;;;;;8420994;28;20222;-59
2022/04/01 10:56:24;;;;;;;23.80;10.10;;;5.10;99.90;;;;;;8408676;28;20236;-60
2022/04/01 11:00:28;;;;;;;12.07;5.50;;;5.10;99.90;;;;;;8411772;28;20209;-61
2022/04/01 11:04:32;;;;;;;7.73;4.17;;;5.00;99.90;;;;;;8423618;28;20317;-60
2022/04/01 11:08:51;;;;;;;14.07;6.10;;;4.90;99.90;;;;;;8396097;28;20205;-59
2022/04/01 11:12:52;;;;;;;15.27;7.47;;;4.70;99.90;;;;;;8421364;28;20244;-59
2022/04/01 11:16:53;;;;;;;13.13;4.00;;;4.60;99.90;;;;;;8439402;28;20204;-59
2022/04/01 11:20:57;;;;;;;16.43;9.47;;;4.50;99.90;;;;;;8427909;28;20275;-59
2022/04/01 11:24:58;;;;;;;21.63;11.50;;;4.20;99.90;;;;;;8404736;28;20212;-59
2022/04/01 11:29:01;;;;;;;14.33;5.30;;;4.10;99.90;;;;;;8420159;28;20203;-57
2022/04/01 11:33:13;;;;;;;35.93;13.57;;;4.10;99.90;;;;;;8425044;28;20218;-60
2022/04/01 11:37:15;;;;;;;13.17;6.00;;;4.20;99.90;;;;;;8423885;28;20212;-61
2022/04/01 11:41:16;;;;;;;12.80;5.77;;;4.40;99.90;;;;;;8421903;28;20212;-60
2022/04/01 11:45:17;;;;;;;13.43;6.47;;;4.60;99.90;;;;;;8442185;28;20274;-60
2022/04/01 11:49:18;;;;;;;14.50;6.80;;;4.90;99.90;;;;;;8402417;28;20209;-63
2022/04/01 11:53:22;;;;;;;23.67;8.10;;;5.20;99.90;;;;;;8445252;28;20260;-59
2022/04/01 11:57:25;;;;;;;10.43;5.63;;;5.20;99.90;;;;;;8415069;28;20219;-59
2022/04/01 12:01:33;;;;;;;37.70;13.53;;;5.10;99.90;;;;;;8422517;28;20249;-59
2022/04/01 12:05:34;;;;;;;12.03;5.77;;;5.00;99.90;;;;;;8401346;28;20248;-58
2022/04/01 12:09:35;;;;;;;12.03;5.60;;;5.00;99.90;;;;;;8427933;28;20218;-60
2022/04/01 12:13:47;;;;;;;13.00;5.10;;;4.80;99.90;;;;;;8427738;28;20224;-58
2022/04/01 12:17:49;;;;;;;26.13;11.17;;;4.80;99.90;;;;;;8428120;28;20204;-60
2022/04/01 12:21:54;;;;;;;25.80;10.23;;;4.80;99.90;;;;;;8427049;28;20203;-59
2022/04/01 12:25:56;;;;;;;31.43;14.20;;;4.80;99.90;;;;;;8420568;28;20286;-59
2022/04/01 12:29:58;;;;;;;15.30;7.50;;;4.80;99.90;;;;;;8425061;28;20239;-59
2022/04/01 12:33:59;;;;;;;16.53;5.07;;;4.80;99.90;;;;;;8438896;28;20219;-60
2022/04/01 12:38:09;;;;;;;22.77;9.17;;;4.80;89.30;;;;;;8425792;28;20204;-61
2022/04/01 12:42:12;;;;;;;20.30;7.40;;;4.80;56.80;;;;;;8418671;28;20279;-59
2022/04/01 12:46:29;;;;;;;24.67;10.63;;;4.90;59.00;;;;;;8443523;28;20196;-72
2022/04/01 12:50:35;;;;;;;25.43;11.40;;;5.10;31.60;;;;;;8439670;28;20200;-59
2022/04/01 12:54:41;;;;;;;23.23;8.77;;;5.40;27.40;;;;;;8399493;28;20214;-60
2022/04/01 12:58:49;;;;;;;17.30;8.63;;;5.50;4.40;;;;;;8415996;28;20258;-59
2022/04/01 13:02:50;;;;;;;13.50;5.63;;;5.60;1.00;;;;;;8419337;28;20200;-60
2022/04/01 13:07:18;;;;;;;19.83;7.23;;;5.60;1.00;;;;;;8398509;28;20210;-60
2022/04/01 13:11:18;;;;;;;13.00;6.50;;;5.60;1.00;;;;;;8399506;28;20207;-59
2022/04/01 13:15:24;;;;;;;23.80;11.00;;;5.60;1.00;;;;;;8409685;28;20219;-60
2022/04/01 13:19:26;;;;;;;27.50;10.40;;;5.60;1.00;;;;;;8406851;28;20298;-57
2022/04/01 13:23:30;;;;;;;29.70;12.73;;;5.60;1.00;;;;;;8418543;28;20206;-60
2022/04/01 13:27:31;;;;;;;23.93;9.50;;;5.60;1.00;;;;;;8419495;28;20290;-59
2022/04/01 13:31:32;;;;;;;22.43;9.80;;;5.70;1.00;;;;;;8451078;28;20211;-59
2022/04/01 13:35:33;;;;;;;19.60;8.60;;;5.70;1.00;;;;;;8431711;28;20209;-60
2022/04/01 13:39:35;;;;;;;16.10;6.70;;;5.80;1.00;;;;;;8429090;28;20253;-59
2022/04/01 13:43:36;;;;;;;20.43;9.17;;;5.70;1.00;;;;;;8443406;28;20310;-58
2022/04/01 13:47:37;;;;;;;20.27;9.67;;;5.70;1.00;;;;;;8402267;28;20204;-59
2022/04/01 13:51:38;;;;;;;13.67;7.30;;;5.70;1.00;;;;;;8433296;28;20277;-60
2022/04/01 13:55:39;;;;;;;22.07;10.73;;;5.60;1.00;;;;;;8422494;28;20209;-61
2022/04/01 13:59:41;;;;;;;17.17;6.37;;;5.70;1.00;;;;;;8400971;28;20210;-60
2022/04/01 14:03:42;;;;;;;30.03;13.30;;;5.80;1.00;;;;;;8444948;28;20203;-57
2022/04/01 14:07:43;;;;;;;24.97;12.10;;;5.90;1.00;;;;;;8426266;28;20210;-59
2022/04/01 14:11:44;;;;;;;19.27;7.80;;;6.00;1.00;;;;;;8421736;28;20280;-61
2022/04/01 14:15:45;;;;;;;31.27;13.83;;;6.00;1.00;;;;;;8433326;28;20309;-59
2022/04/01 14:19:46;;;;;;;33.07;16.33;;;5.90;1.00;;;;;;8438101;28;20200;-58
2022/04/01 14:23:47;;;;;;;18.60;8.17;;;5.80;1.00;;;;;;8403378;28;20292;-59
2022/04/01 14:27:49;;;;;;;22.83;9.33;;;5.70;1.00;;;;;;8437074;28;20213;-58
2022/04/01 14:31:58;;;;;;;21.17;11.70;;;5.70;1.00;;;;;;8449807;28;20285;-59
2022/04/01 14:36:00;;;;;;;14.30;6.40;;;5.70;1.00;;;;;;8428080;28;20296;-59
2022/04/01 14:40:03;;;;;;;25.20;8.53;;;5.60;1.00;;;;;;8423190;28;20205;-59
2022/04/01 14:44:04;;;;;;;16.10;7.30;;;5.50;1.00;;;;;;8438220;28;20245;-61
2022/04/01 14:48:06;;;;;;;19.30;9.00;;;5.50;1.00;;;;;;8445024;28;20493;-59
2022/04/01 14:52:07;;;;;;;23.53;7.20;;;5.40;1.00;;;;;;8431479;28;20229;-59
2022/04/01 14:56:08;;;;;;;18.90;6.43;;;5.20;1.00;;;;;;8406993;28;20258;-61
2022/04/01 15:00:10;;;;;;;20.07;8.87;;;5.10;1.00;;;;;;8405453;28;20206;-59
2022/04/01 15:04:10;;;;;;;24.73;8.27;;;5.10;1.00;;;;;;8429266;28;20531;-61
2022/04/01 15:08:11;;;;;;;17.13;5.53;;;5.10;1.00;;;;;;8420549;28;20313;-59
2022/04/01 15:12:12;;;;;;;22.87;10.07;;;5.10;1.00;;;;;;8419017;28;20247;-59
2022/04/01 15:16:13;;;;;;;25.27;7.47;;;5.00;1.00;;;;;;8410635;28;20240;-60
2022/04/01 15:20:15;;;;;;;30.73;10.10;;;5.00;1.00;;;;;;8410785;28;20272;-60
2022/04/01 15:24:16;;;;;;;44.93;17.97;;;5.00;1.00;;;;;;8410351;28;20196;-59
2022/04/01 15:28:17;;;;;;;25.03;7.90;;;5.00;1.00;;;;;;8432646;28;20201;-61
2022/04/01 15:32:18;;;;;;;33.17;13.33;;;5.00;1.00;;;;;;8426925;28;20311;-59
2022/04/01 15:36:21;;;;;;;31.27;13.73;;;4.90;1.00;;;;;;8411904;28;20212;-59
2022/04/01 15:40:22;;;;;;;37.20;12.60;;;4.80;1.00;;;;;;8400655;28;20233;-60
2022/04/01 15:44:23;;;;;;;26.63;9.37;;;4.80;1.00;;;;;;8412412;28;20205;-59
2022/04/01 15:48:24;;;;;;;35.60;11.83;;;4.70;1.00;;;;;;8447327;28;20215;-60
2022/04/01 15:52:25;;;;;;;36.50;10.10;;;4.70;1.00;;;;;;8421275;28;20219;-60
2022/04/01 15:56:26;;;;;;;21.97;7.47;;;4.70;1.00;;;;;;8430014;28;20207;-58
2022/04/01 16:00:29;;;;;;;44.60;14.40;;;4.60;1.00;;;;;;8430980;28;20217;-74
2022/04/01 16:04:32;;;;;;;20.67;6.60;;;4.60;1.00;;;;;;8430195;28;20227;-58
2022/04/01 16:08:35;;;;;;;20.93;7.93;;;4.60;1.00;;;;;;8440055;28;20219;-59
2022/04/01 16:12:36;;;;;;;32.93;11.97;;;4.60;1.00;;;;;;8425789;28;20225;-60
2022/04/01 16:16:37;;;;;;;23.43;9.27;;;4.60;1.00;;;;;;8412870;28;20260;-60
2022/04/01 16:20:41;;;;;;;30.47;12.53;;;4.60;1.00;;;;;;8408666;28;20212;-58
2022/04/01 16:24:42;;;;;;;24.20;8.80;;;4.60;1.00;;;;;;8436027;28;20200;-60
2022/04/01 16:28:43;;;;;;;19.37;7.57;;;4.70;1.00;;;;;;8416633;28;20216;-58
2022/04/01 16:32:44;;;;;;;37.50;15.47;;;4.70;1.00;;;;;;8456793;28;20219;-61
2022/04/01 16:36:45;;;;;;;37.87;14.53;;;4.70;1.00;;;;;;8418228;28;20212;-61
2022/04/01 16:40:46;;;;;;;36.07;14.13;;;4.70;1.00;;;;;;8408358;28;20235;-60
2022/04/01 16:44:46;;;;;;;39.87;11.33;;;4.70;1.00;;;;;;8437134;28;20207;-60
2022/04/01 16:48:48;;;;;;;34.67;13.27;;;4.70;1.00;;;;;;8422141;28;20274;-58
2022/04/01 16:52:49;;;;;;;23.13;8.70;;;4.60;1.00;;;;;;8419051;28;20217;-58
2022/04/01 16:56:49;;;;;;;32.37;10.70;;;4.50;1.00;;;;;;8426372;28;20233;-58
2022/04/01 17:00:50;;;;;;;17.23;5.87;;;4.40;1.00;;;;;;8426804;28;20205;-59
2022/04/01 17:04:51;;;;;;;21.97;7.30;;;4.30;1.00;;;;;;8404780;28;20509;-60
2022/04/01 17:13:11;;;;;;;9.33;3.63;;;4.20;11.00;;;;;;8425230;28;20227;-58
2022/04/01 17:17:13;;;;;;;12.83;4.37;;;4.10;4.40;;;;;;8429235;28;20208;-59
2022/04/01 17:21:14;;;;;;;17.87;5.70;;;4.10;2.00;;;;;;8429755;28;20295;-59
2022/04/01 17:25:16;;;;;;;19.93;7.20;;;4.10;8.70;;;;;;8428774;28;20207;-59
2022/04/01 17:29:17;;;;;;;14.40;4.80;;;4.00;16.30;;;;;;8451940;28;20200;-60
2022/04/01 17:33:19;;;;;;;19.60;5.43;;;3.90;20.50;;;;;;8415979;28;20245;-60
2022/04/01 17:37:21;;;;;;;12.93;4.60;;;3.90;23.80;;;;;;8418699;28;20226;-61
2022/04/01 17:41:23;;;;;;;15.23;4.33;;;3.90;40.80;;;;;;8421649;28;20200;-62
2022/04/01 17:45:26;;;;;;;14.57;5.13;;;3.90;50.50;;;;;;8422331;28;20312;-59
2022/04/01 17:49:29;;;;;;;10.73;4.70;;;3.80;56.10;;;;;;8419791;28;20208;-59
2022/04/01 17:53:31;;;;;;;22.90;9.27;;;3.80;70.10;;;;;;8416219;28;20223;-59
2022/04/01 17:57:34;;;;;;;53.93;26.87;;;3.70;77.40;;;;;;8424299;28;20204;-59
2022/04/01 18:01:37;;;;;;;205.67;112.40;;;3.70;84.90;;;;;;8415712;28;20220;-61
2022/04/01 18:05:39;;;;;;;72.20;52.80;;;3.70;91.90;;;;;;8418759;28;20204;-60
2022/04/01 18:09:43;;;;;;;23.80;10.93;;;3.60;97.90;;;;;;8415287;28;20248;-59
2022/04/01 18:13:44;;;;;;;39.13;15.20;;;3.70;99.90;;;;;;8417078;28;20224;-61
2022/04/01 18:17:45;;;;;;;65.20;22.40;;;3.70;86.80;;;;;;8431018;28;20203;-59
2022/04/01 18:21:46;;;;;;;23.07;10.63;;;3.60;89.80;;;;;;8416014;28;20200;-59
2022/04/01 18:26:06;;;;;;;33.23;12.43;;;3.70;80.10;;;;;;8404761;28;20208;-59
2022/04/01 18:30:11;;;;;;;29.73;12.40;;;3.70;73.80;;;;;;8423512;28;20203;-60
2022/04/01 18:34:13;;;;;;;26.83;11.80;;;3.50;92.20;;;;;;8407878;28;20220;-60
2022/04/01 18:38:17;;;;;;;44.57;17.90;;;3.60;80.40;;;;;;8408646;28;20603;-60
2022/04/01 18:42:19;;;;;;;72.53;29.47;;;3.50;81.10;;;;;;8421178;28;20324;-59
2022/04/01 18:46:20;;;;;;;45.73;19.40;;;3.60;70.70;;;;;;8416485;28;20412;-60
2022/04/01 18:50:21;;;;;;;35.83;16.93;;;3.50;77.80;;;;;;8446926;28;20203;-60
2022/04/01 18:54:24;;;;;;;37.30;15.47;;;3.50;91.30;;;;;;8438284;28;20255;-60
2022/04/01 18:58:30;;;;;;;50.83;21.47;;;3.50;95.30;;;;;;8426363;28;20311;-60
2022/04/01 19:03:08;;;;;;;62.77;26.23;;;3.40;94.10;;;;;;8415445;28;20219;-60
2022/04/01 19:07:17;;;;;;;149.63;48.63;;;3.40;98.10;;;;;;8418641;28;20208;-60
2022/04/01 19:11:48;;;;;;;118.77;37.77;;;3.30;96.70;;;;;;8401718;28;20200;-60
2022/04/01 19:15:51;;;;;;;59.03;19.90;;;3.40;94.80;;;;;;8400447;28;20246;-59
2022/04/01 19:19:54;;;;;;;76.80;25.40;;;3.40;91.20;;;;;;8422629;28;20246;-59
2022/04/01 19:23:55;;;;;;;97.13;34.10;;;3.30;88.30;;;;;;8411911;28;20544;-59
2022/04/01 19:27:56;;;;;;;84.43;35.47;;;3.30;91.60;;;;;;8408635;28;20212;-59
2022/04/01 19:31:58;;;;;;;69.83;31.97;;;3.30;85.90;;;;;;8400730;28;20228;-59
2022/04/01 19:35:59;;;;;;;33.60;14.47;;;3.30;87.60;;;;;;8413511;28;20264;-60
2022/04/01 19:40:01;;;;;;;26.07;11.73;;;3.30;93.90;;;;;;8425644;28;20249;-60
2022/04/01 19:44:02;;;;;;;25.57;9.77;;;3.20;99.90;;;;;;8410103;28;20256;-60
2022/04/01 19:48:03;;;;;;;18.20;8.80;;;3.30;42.50;;;;;;8420983;28;20195;-59
2022/04/01 19:52:04;;;;;;;14.60;4.60;;;3.40;10.50;;;;;;8415316;28;20242;-58
2022/04/01 19:56:05;;;;;;;20.73;10.17;;;3.50;1.00;;;;;;8400085;28;20219;-61
2022/04/01 20:00:09;;;;;;;17.27;7.27;;;3.60;1.00;;;;;;8443500;28;20216;-57
2022/04/01 20:04:10;;;;;;;24.33;7.43;;;3.60;1.00;;;;;;8424935;28;20196;-59
2022/04/01 20:08:11;;;;;;;24.13;8.10;;;3.60;8.90;;;;;;8405534;28;20225;-59
2022/04/01 20:12:12;;;;;;;20.43;8.93;;;3.50;18.00;;;;;;8405140;28;20224;-59
2022/04/01 20:16:15;;;;;;;19.70;8.07;;;3.50;27.20;;;;;;8442653;28;20212;-59
2022/04/01 20:20:17;;;;;;;24.30;6.43;;;3.40;36.00;;;;;;8413305;28;20208;-58
2022/04/01 20:24:18;;;;;;;19.97;8.40;;;3.40;31.00;;;;;;8441485;28;20670;-58
2022/04/01 20:28:21;;;;;;;23.57;7.97;;;3.30;40.30;;;;;;8438842;28;20211;-59
2022/04/01 20:32:21;;;;;;;20.37;8.50;;;3.30;36.60;;;;;;8407612;28;20212;-61
2022/04/01 20:36:22;;;;;;;22.07;5.73;;;3.30;41.10;;;;;;8437454;28;20222;-60
2022/04/01 20:40:24;;;;;;;10.83;5.27;;;3.30;29.50;;;;;;8407624;28;20203;-58
2022/04/01 20:44:24;;;;;;;16.07;6.17;;;3.30;31.40;;;;;;8427106;28;20211;-58
2022/04/01 20:48:26;;;;;;;13.23;6.30;;;3.30;43.80;;;;;;8434064;28;20307;-58
2022/04/01 20:52:27;;;;;;;16.47;7.07;;;3.20;30.10;;;;;;8418563;28;20231;-60
2022/04/01 20:56:28;;;;;;;16.93;8.00;;;3.20;36.70;;;;;;8433210;28;20209;-58
2022/04/01 21:00:29;;;;;;;6.97;3.93;;;3.10;54.30;;;;;;8426379;28;20254;-59
2022/04/01 21:04:30;;;;;;;14.80;6.50;;;3.10;56.50;;;;;;8422285;28;20238;-60
2022/04/01 21:08:31;;;;;;;13.10;5.00;;;3.10;70.10;;;;;;8422129;28;20212;-59
2022/04/01 21:12:33;;;;;;;10.83;5.13;;;3.00;90.40;;;;;;8424446;28;20656;-58
2022/04/01 21:16:34;;;;;;;17.00;5.23;;;2.90;99.90;;;;;;8441873;28;20198;-59
2022/04/01 21:20:35;;;;;;;12.80;5.10;;;2.70;99.90;;;;;;8440369;28;20212;-60
2022/04/01 21:24:36;;;;;;;7.60;4.40;;;2.70;99.90;;;;;;8423591;28;20207;-59
2022/04/01 21:28:37;;;;;;;8.37;5.07;;;2.70;99.90;;;;;;8426686;28;20564;-60